createdAt,value
2022-12-08T00:01:22.126Z,79.70
2022-12-08T00:03:49.746Z,79.70
2022-12-08T00:06:43.121Z,79.60
2022-12-08T00:09:39.527Z,79.60
2022-12-08T00:12:12.289Z,79.70
2022-12-08T00:14:42.416Z,79.80
2022-12-08T00:17:11.724Z,79.80
2022-12-08T00:19:39.623Z,79.80
2022-12-08T00:22:07.847Z,80.00
2022-12-08T00:24:39.412Z,80.00
2022-12-08T00:27:08.184Z,80.00
2022-12-08T00:29:35.036Z,80.10
2022-12-08T00:32:02.108Z,80.40
2022-12-08T00:34:29.039Z,80.40
2022-12-08T00:36:55.903Z,80.60
2022-12-08T00:39:22.763Z,80.60
2022-12-08T00:42:08.215Z,80.70
2022-12-08T00:44:35.097Z,80.60
2022-12-08T00:47:01.844Z,80.50
2022-12-08T00:49:28.715Z,80.30
2022-12-08T00:51:56.097Z,80.20
2022-12-08T00:54:23.572Z,80.10
2022-12-08T00:56:50.782Z,80.00
2022-12-08T00:59:18.430Z,79.90
2022-12-08T01:01:46.987Z,79.80
2022-12-08T01:04:16.178Z,79.70
2022-12-08T01:06:44.162Z,79.70
2022-12-08T01:09:18.000Z,79.60
2022-12-08T01:11:45.428Z,79.70
2022-12-08T01:14:13.187Z,79.70
2022-12-08T01:16:41.827Z,79.70
2022-12-08T01:19:13.959Z,79.70
2022-12-08T01:21:41.886Z,79.70
2022-12-08T01:24:16.064Z,79.80
2022-12-08T01:26:43.488Z,79.80
2022-12-08T01:29:11.226Z,80.10
2022-12-08T01:31:38.872Z,80.30
2022-12-08T01:34:06.964Z,80.50
2022-12-08T01:36:37.210Z,80.50
2022-12-08T01:39:07.078Z,80.70
2022-12-08T01:41:36.443Z,80.70
2022-12-08T01:44:10.621Z,81.00
2022-12-08T01:46:45.935Z,81.30
2022-12-08T01:49:29.016Z,81.40
2022-12-08T01:52:16.436Z,81.30
2022-12-08T01:54:52.821Z,81.40
2022-12-08T01:57:33.746Z,81.60
2022-12-08T02:00:10.449Z,81.70
2022-12-08T02:03:04.791Z,82.00
2022-12-08T02:05:37.048Z,82.30
2022-12-08T02:08:10.148Z,82.40
2022-12-08T02:10:40.706Z,82.40
2022-12-08T02:13:12.619Z,82.30
2022-12-08T02:16:05.079Z,82.20
2022-12-08T02:19:29.800Z,82.20
2022-12-08T02:21:59.597Z,82.10
2022-12-08T02:24:38.885Z,82.00
2022-12-08T02:27:24.487Z,82.00
2022-12-08T02:29:54.047Z,81.90
2022-12-08T02:32:36.205Z,81.70
2022-12-08T02:35:14.503Z,81.70
2022-12-08T02:37:57.172Z,81.60
2022-12-08T02:40:39.719Z,81.60
2022-12-08T02:43:38.298Z,81.50
2022-12-08T02:46:10.654Z,81.40
2022-12-08T02:48:38.055Z,81.40
2022-12-08T02:51:05.527Z,81.50
2022-12-08T02:53:35.408Z,81.70
2022-12-08T02:56:26.473Z,81.70
2022-12-08T02:59:08.605Z,81.80
2022-12-08T03:01:44.440Z,81.90
2022-12-08T03:04:17.457Z,82.00
2022-12-08T03:07:19.758Z,82.10
2022-12-08T03:09:50.235Z,82.10
2022-12-08T03:12:37.051Z,82.30
2022-12-08T03:15:14.455Z,82.20
2022-12-08T03:17:46.022Z,82.30
2022-12-08T03:20:18.402Z,82.30
2022-12-08T03:22:47.965Z,82.40
2022-12-08T03:25:17.112Z,82.50
2022-12-08T03:27:44.566Z,82.60
2022-12-08T03:30:11.762Z,82.60
2022-12-08T03:33:05.011Z,82.60
2022-12-08T03:35:35.823Z,82.60
2022-12-08T03:38:12.466Z,82.40
2022-12-08T03:40:40.201Z,82.30
2022-12-08T03:43:07.650Z,82.30
2022-12-08T03:45:34.494Z,82.30
2022-12-08T03:48:01.330Z,82.40
2022-12-08T03:50:28.163Z,82.40
2022-12-08T03:52:54.892Z,82.40
2022-12-08T03:55:21.781Z,82.40
2022-12-08T03:57:48.608Z,82.40
2022-12-08T04:00:16.863Z,82.40
2022-12-08T04:02:43.813Z,82.50
2022-12-08T04:05:10.766Z,82.40
2022-12-08T04:07:37.707Z,82.40
2022-12-08T04:10:05.822Z,82.30
2022-12-08T04:12:33.035Z,82.20
2022-12-08T04:14:59.895Z,82.20
2022-12-08T04:17:26.665Z,82.20
2022-12-08T04:19:53.434Z,82.30
2022-12-08T04:22:20.198Z,82.40
2022-12-08T04:24:47.296Z,82.40
2022-12-08T04:27:14.242Z,82.50
2022-12-08T04:29:41.092Z,82.50
2022-12-08T04:32:07.886Z,82.40
2022-12-08T04:34:34.761Z,82.40
2022-12-08T04:37:01.620Z,82.50
2022-12-08T04:39:28.447Z,82.50
2022-12-08T04:42:01.493Z,82.40
2022-12-08T04:44:28.360Z,82.30
2022-12-08T04:46:55.471Z,82.20
2022-12-08T04:49:22.416Z,82.10
2022-12-08T04:51:49.246Z,81.90
2022-12-08T04:54:16.112Z,81.80
2022-12-08T04:56:43.137Z,81.90
2022-12-08T04:59:10.143Z,81.90
2022-12-08T05:01:37.081Z,81.90
2022-12-08T05:04:03.921Z,81.90
2022-12-08T05:06:31.083Z,81.80
2022-12-08T05:08:57.911Z,81.80
2022-12-08T05:11:24.913Z,81.80
2022-12-08T05:13:51.824Z,81.80
2022-12-08T05:16:18.722Z,81.80
2022-12-08T05:18:45.660Z,81.80
2022-12-08T05:21:12.820Z,81.90
2022-12-08T05:23:39.830Z,82.00
2022-12-08T05:26:06.949Z,82.00
2022-12-08T05:28:42.701Z,82.10
2022-12-08T05:31:14.574Z,82.00
2022-12-08T05:33:41.725Z,82.00
2022-12-08T05:36:10.024Z,81.90
2022-12-08T05:38:36.929Z,81.80
2022-12-08T05:41:05.530Z,81.70
2022-12-08T05:43:32.566Z,81.60
2022-12-08T05:45:59.567Z,81.40
2022-12-08T05:48:26.713Z,81.50
2022-12-08T05:50:53.748Z,81.50
2022-12-08T05:53:20.987Z,81.50
2022-12-08T05:55:48.147Z,81.50
2022-12-08T05:58:17.318Z,81.40
2022-12-08T06:00:45.244Z,81.40
2022-12-08T06:03:13.032Z,81.30
2022-12-08T06:05:41.410Z,81.30
2022-12-08T06:08:09.113Z,81.10
2022-12-08T06:10:37.415Z,80.90
2022-12-08T06:13:04.349Z,81.00
2022-12-08T06:15:31.201Z,81.00
2022-12-08T06:17:58.071Z,80.90
2022-12-08T06:20:24.920Z,80.80
2022-12-08T06:22:51.718Z,80.70
2022-12-08T06:25:18.605Z,80.80
2022-12-08T06:27:45.337Z,80.80
2022-12-08T06:30:12.595Z,80.70
2022-12-08T06:32:39.495Z,80.00
2022-12-08T06:35:06.886Z,79.70
2022-12-08T06:37:33.904Z,79.90
2022-12-08T06:40:00.686Z,80.30
2022-12-08T06:42:46.607Z,80.50
2022-12-08T06:45:15.790Z,80.70
2022-12-08T06:47:43.198Z,80.70
2022-12-08T06:50:11.686Z,80.90
2022-12-08T06:52:47.281Z,80.80
2022-12-08T06:55:42.731Z,80.90
2022-12-08T06:58:06.770Z,81.00
2022-12-08T07:00:33.573Z,81.20
2022-12-08T07:03:00.592Z,81.20
2022-12-08T07:05:27.508Z,81.30
2022-12-08T07:07:54.421Z,81.30
2022-12-08T07:10:21.432Z,81.30
2022-12-08T07:12:48.299Z,81.40
2022-12-08T07:15:15.275Z,81.30
2022-12-08T07:17:42.285Z,81.40
2022-12-08T07:20:09.295Z,81.40
2022-12-08T07:22:36.153Z,81.50
2022-12-08T07:25:03.053Z,81.60
2022-12-08T07:27:29.988Z,81.60
2022-12-08T07:29:56.868Z,81.60
2022-12-08T07:32:23.729Z,81.60
2022-12-08T07:34:50.565Z,81.80
2022-12-08T07:37:17.608Z,81.80
2022-12-08T07:39:44.579Z,81.90
2022-12-08T07:42:11.372Z,82.00
2022-12-08T07:44:38.163Z,82.10
2022-12-08T07:47:05.180Z,82.00
2022-12-08T07:49:32.029Z,81.90
2022-12-08T07:51:58.888Z,82.00
2022-12-08T07:54:25.754Z,82.00
2022-12-08T07:56:52.629Z,82.10
2022-12-08T07:59:19.732Z,82.10
2022-12-08T08:01:56.288Z,82.00
2022-12-08T08:04:34.477Z,82.10
2022-12-08T08:07:01.272Z,82.20
2022-12-08T08:09:28.133Z,82.20
2022-12-08T08:12:22.150Z,82.20
2022-12-08T08:14:42.047Z,82.20
2022-12-08T08:17:09.006Z,82.20
2022-12-08T08:19:35.999Z,82.30
2022-12-08T08:22:02.815Z,82.30
2022-12-08T08:24:29.584Z,82.40
2022-12-08T08:26:56.621Z,82.40
2022-12-08T08:29:23.609Z,82.50
2022-12-08T08:31:50.519Z,82.50
2022-12-08T08:34:17.447Z,82.60
2022-12-08T08:36:44.270Z,82.60
2022-12-08T08:39:11.136Z,82.50
2022-12-08T08:41:38.063Z,82.60
2022-12-08T08:44:05.236Z,82.70
2022-12-08T08:46:32.325Z,82.70
2022-12-08T08:48:59.183Z,82.70
2022-12-08T08:51:25.948Z,82.70
2022-12-08T08:53:52.766Z,82.70
2022-12-08T08:56:20.170Z,82.50
2022-12-08T08:58:49.473Z,82.50
2022-12-08T09:01:19.052Z,82.60
2022-12-08T09:03:46.036Z,82.60
2022-12-08T09:06:14.051Z,82.60
2022-12-08T09:08:42.312Z,82.60
2022-12-08T09:11:09.727Z,82.30
2022-12-08T09:13:36.608Z,82.30
2022-12-08T09:16:08.344Z,82.10
2022-12-08T09:18:35.569Z,81.90
2022-12-08T09:21:07.082Z,81.80
2022-12-08T09:23:35.728Z,81.80
2022-12-08T09:26:05.211Z,82.00
2022-12-08T09:28:33.035Z,82.00
2022-12-08T09:31:01.343Z,82.30
2022-12-08T09:33:28.325Z,82.40
2022-12-08T09:35:55.414Z,82.40
2022-12-08T09:38:22.345Z,82.20
2022-12-08T09:40:53.818Z,82.10
2022-12-08T09:43:48.860Z,81.90
2022-12-08T09:46:18.197Z,81.30
2022-12-08T09:48:55.705Z,81.20
2022-12-08T09:51:28.013Z,81.50
2022-12-08T09:54:08.014Z,81.80
2022-12-08T09:56:37.287Z,82.10
2022-12-08T09:59:16.962Z,82.30
2022-12-08T10:01:44.000Z,82.50
2022-12-08T10:04:36.202Z,82.80
2022-12-08T10:07:24.397Z,83.20
2022-12-08T10:10:18.560Z,83.20
2022-12-08T10:12:57.404Z,83.20
2022-12-08T10:15:56.683Z,83.20
2022-12-08T10:18:32.230Z,83.30
2022-12-08T10:21:11.550Z,83.60
2022-12-08T10:23:42.112Z,83.70
2022-12-08T10:26:18.170Z,83.60
2022-12-08T10:28:45.761Z,83.50
2022-12-08T10:31:22.246Z,83.40
2022-12-08T10:33:58.771Z,83.40
2022-12-08T10:36:58.151Z,83.50
2022-12-08T10:39:40.758Z,83.50
2022-12-08T10:42:15.566Z,83.30
2022-12-08T10:44:57.889Z,83.40
2022-12-08T10:47:27.321Z,83.10
2022-12-08T10:50:34.871Z,83.20
2022-12-08T10:53:10.825Z,83.00
2022-12-08T10:56:05.453Z,82.90
2022-12-08T10:58:36.714Z,82.80
2022-12-08T11:01:20.908Z,82.60
2022-12-08T11:03:55.058Z,82.50
2022-12-08T11:06:31.976Z,82.50
2022-12-08T11:09:26.725Z,82.50
2022-12-08T11:11:59.239Z,82.50
2022-12-08T11:14:32.610Z,82.60
2022-12-08T11:17:30.852Z,82.80
2022-12-08T11:20:01.428Z,82.80
2022-12-08T11:22:33.579Z,82.50
2022-12-08T11:25:25.922Z,82.20
2022-12-08T11:27:56.582Z,82.30
2022-12-08T11:30:27.966Z,82.30
2022-12-08T11:33:06.031Z,82.50
2022-12-08T11:35:59.145Z,82.10
2022-12-08T11:38:27.868Z,82.00
2022-12-08T11:41:16.826Z,82.00
2022-12-08T11:44:16.349Z,82.40
2022-12-08T11:46:50.833Z,82.60
2022-12-08T11:49:18.881Z,82.90
2022-12-08T11:51:54.631Z,82.90
2022-12-08T11:54:40.142Z,82.60
2022-12-08T11:57:20.780Z,82.80
2022-12-08T11:59:51.145Z,82.70
2022-12-08T12:02:22.596Z,82.90
2022-12-08T12:05:00.372Z,82.70
2022-12-08T12:07:46.095Z,83.00
2022-12-08T12:10:30.496Z,83.40
2022-12-08T12:13:23.554Z,83.10
2022-12-08T12:16:22.068Z,83.10
2022-12-08T12:19:01.494Z,82.90
2022-12-08T12:21:33.431Z,82.90
2022-12-08T12:24:08.364Z,82.80
2022-12-08T12:26:39.071Z,82.80
2022-12-08T12:29:36.790Z,82.90
2022-12-08T12:32:08.330Z,83.20
2022-12-08T12:34:56.944Z,84.10
2022-12-08T12:37:46.389Z,91.10
2022-12-08T12:40:18.989Z,90.70
2022-12-08T12:43:09.635Z,83.50
2022-12-08T12:45:43.402Z,81.40
2022-12-08T12:48:20.086Z,83.70
2022-12-08T12:50:51.016Z,85.90
2022-12-08T12:53:20.492Z,85.00
2022-12-08T12:55:59.112Z,81.50
2022-12-08T12:58:29.617Z,80.00
2022-12-08T13:01:08.573Z,79.20
2022-12-08T13:03:35.877Z,77.50
2022-12-08T13:06:03.694Z,75.50
2022-12-08T13:08:31.626Z,75.00
2022-12-08T13:11:05.415Z,75.10
2022-12-08T13:13:32.532Z,75.30
2022-12-08T13:16:18.770Z,75.20
2022-12-08T13:18:51.288Z,75.80
2022-12-08T13:21:23.508Z,75.90
2022-12-08T13:24:19.847Z,76.10
2022-12-08T13:26:47.739Z,76.20
2022-12-08T13:29:19.094Z,76.20
2022-12-08T13:31:53.494Z,77.60
2022-12-08T13:34:37.010Z,79.00
2022-12-08T13:37:15.628Z,78.20
2022-12-08T13:39:51.851Z,78.10
2022-12-08T13:42:35.722Z,78.90
2022-12-08T13:48:27.879Z,80.60
2022-12-08T13:57:11.534Z,76.10
2022-12-08T13:59:43.760Z,73.70
2022-12-08T14:02:30.105Z,72.60
2022-12-08T14:07:46.516Z,71.60
2022-12-08T14:10:23.372Z,72.20
2022-12-08T14:12:56.976Z,72.10
2022-12-08T14:15:25.522Z,72.80
2022-12-08T14:17:54.747Z,73.10
2022-12-08T14:20:28.363Z,73.00
2022-12-08T14:22:55.772Z,73.20
2022-12-08T14:25:23.599Z,73.50
2022-12-08T14:27:56.347Z,74.00
2022-12-08T14:30:31.179Z,74.30
2022-12-08T14:33:00.956Z,74.50
2022-12-08T14:35:36.734Z,74.50
2022-12-08T14:38:13.974Z,74.50
2022-12-08T14:40:59.600Z,74.80
2022-12-08T14:43:28.111Z,74.90
2022-12-08T14:46:01.579Z,75.20
2022-12-08T14:48:31.458Z,75.20
2022-12-08T14:51:05.252Z,75.50
2022-12-08T14:53:40.026Z,75.80
2022-12-08T14:56:23.627Z,76.20
2022-12-08T14:59:03.190Z,76.10
2022-12-08T15:01:30.610Z,76.30
2022-12-08T15:04:14.528Z,76.80
2022-12-08T15:06:51.863Z,77.20
2022-12-08T15:09:29.898Z,77.60
2022-12-08T15:12:14.754Z,78.00
2022-12-08T15:14:53.805Z,78.10
2022-12-08T15:17:47.945Z,78.20
2022-12-08T15:20:35.049Z,78.20
2022-12-08T15:23:02.821Z,78.40
2022-12-08T15:25:29.842Z,78.60
2022-12-08T15:27:57.931Z,78.80
2022-12-08T15:30:26.498Z,79.10
2022-12-08T15:32:55.945Z,79.10
2022-12-08T15:35:22.807Z,79.20
2022-12-08T15:37:49.560Z,79.30
2022-12-08T15:40:19.782Z,79.40
2022-12-08T15:42:47.162Z,79.50
2022-12-08T15:45:14.831Z,79.70
2022-12-08T15:47:43.643Z,79.70
2022-12-08T15:50:21.657Z,80.00
2022-12-08T15:52:50.893Z,80.10
2022-12-08T15:55:20.167Z,80.00
2022-12-08T15:58:51.244Z,79.90
2022-12-08T16:00:55.031Z,79.90
2022-12-08T16:09:36.317Z,80.00
2022-12-08T16:12:21.758Z,80.00
2022-12-08T16:17:36.540Z,80.10
2022-12-08T16:20:10.898Z,80.10
2022-12-08T16:22:54.460Z,80.00
2022-12-08T16:25:24.880Z,79.90
2022-12-08T16:28:03.143Z,80.00
2022-12-08T16:30:35.913Z,80.00
2022-12-08T16:33:02.676Z,80.00
2022-12-08T16:35:29.953Z,80.00
2022-12-08T16:37:57.231Z,79.80
2022-12-08T16:40:24.202Z,79.80
2022-12-08T16:42:51.147Z,79.80
2022-12-08T16:45:30.130Z,79.70
2022-12-08T16:48:01.240Z,79.70
2022-12-08T16:50:34.818Z,79.80
2022-12-08T16:53:03.248Z,79.90
2022-12-08T16:55:30.424Z,80.00
2022-12-08T16:57:57.923Z,80.10
2022-12-08T17:00:27.810Z,80.00
2022-12-08T17:02:55.817Z,80.10
2022-12-08T17:05:24.898Z,80.00
2022-12-08T17:07:53.797Z,80.10
2022-12-08T17:10:23.643Z,80.20
2022-12-08T17:12:51.157Z,80.20
2022-12-08T17:15:21.074Z,80.30
2022-12-08T17:17:48.718Z,80.50
2022-12-08T17:20:18.406Z,80.50
2022-12-08T17:22:45.782Z,80.50
2022-12-08T17:25:12.717Z,80.50
2022-12-08T17:27:40.411Z,80.40
2022-12-08T17:30:09.413Z,80.70
2022-12-08T17:32:38.108Z,80.60
2022-12-08T17:35:05.995Z,80.80
2022-12-08T17:37:33.461Z,80.80
2022-12-08T17:40:00.423Z,80.80
2022-12-08T17:42:27.461Z,80.90
2022-12-08T17:44:54.933Z,81.20
2022-12-08T17:47:22.352Z,81.30
2022-12-08T17:49:49.343Z,81.50
2022-12-08T17:52:16.122Z,81.50
2022-12-08T17:54:43.056Z,81.50
2022-12-08T17:57:09.882Z,81.50
2022-12-08T17:59:36.772Z,81.50
2022-12-08T18:02:04.399Z,81.40
2022-12-08T18:04:31.460Z,81.40
2022-12-08T18:07:00.767Z,81.50
2022-12-08T18:09:30.862Z,81.50
2022-12-08T18:11:57.772Z,81.60
2022-12-08T18:14:24.573Z,81.50
2022-12-08T18:16:51.453Z,81.40
2022-12-08T18:19:18.522Z,81.40
2022-12-08T18:21:45.460Z,81.30
2022-12-08T18:24:19.031Z,81.20
2022-12-08T18:26:46.674Z,81.10
2022-12-08T18:29:13.829Z,81.00
2022-12-08T18:31:40.715Z,81.00
2022-12-08T18:34:07.508Z,81.10
2022-12-08T18:36:34.613Z,81.10
2022-12-08T18:39:05.754Z,81.10
2022-12-08T18:41:35.784Z,81.10
2022-12-08T18:44:02.618Z,81.10
2022-12-08T18:46:29.505Z,81.00
2022-12-08T18:48:56.526Z,81.00
2022-12-08T18:51:24.691Z,80.90
2022-12-08T18:53:52.057Z,80.80
2022-12-08T18:56:37.176Z,81.00
2022-12-08T18:59:10.198Z,81.10
2022-12-08T19:01:38.799Z,81.10
2022-12-08T19:06:54.510Z,81.30
2022-12-08T19:09:22.408Z,81.40
2022-12-08T19:11:49.269Z,81.50
2022-12-08T19:14:16.367Z,81.50
2022-12-08T19:16:43.289Z,81.50
2022-12-08T19:19:10.098Z,81.40
2022-12-08T19:21:41.541Z,81.40
2022-12-08T19:24:11.894Z,81.40
2022-12-08T19:26:39.344Z,81.30
2022-12-08T19:29:06.265Z,81.30
2022-12-08T19:31:33.101Z,81.30
2022-12-08T19:34:00.142Z,81.30
2022-12-08T19:36:27.736Z,81.20
2022-12-08T19:39:13.175Z,81.00
2022-12-08T19:41:58.770Z,81.00
2022-12-08T19:44:46.473Z,81.00
2022-12-08T19:47:13.881Z,80.80
2022-12-08T19:49:47.513Z,80.80
2022-12-08T19:52:14.418Z,80.90
2022-12-08T19:54:41.257Z,80.90
2022-12-08T19:57:08.275Z,80.90
2022-12-08T19:59:34.992Z,80.90
2022-12-08T20:02:01.876Z,80.80
2022-12-08T20:04:28.838Z,80.80
2022-12-08T20:06:56.510Z,80.80
2022-12-08T20:09:23.937Z,80.80
2022-12-08T20:11:54.399Z,80.80
2022-12-08T20:14:22.786Z,80.70
2022-12-08T20:16:50.737Z,80.70
2022-12-08T20:19:18.063Z,80.60
2022-12-08T20:21:44.899Z,80.50
2022-12-08T20:24:11.830Z,80.30
2022-12-08T20:26:38.675Z,80.10
2022-12-08T20:29:05.533Z,79.80
2022-12-08T20:31:33.314Z,79.60
2022-12-08T20:34:00.733Z,79.50
2022-12-08T20:36:28.191Z,79.50
2022-12-08T20:38:55.619Z,79.50
2022-12-08T20:41:23.567Z,79.50
2022-12-08T20:43:51.567Z,79.50
2022-12-08T20:46:19.896Z,79.70
2022-12-08T20:48:46.928Z,79.80
2022-12-08T20:51:18.997Z,80.00
2022-12-08T20:53:46.761Z,80.20
2022-12-08T20:56:18.587Z,80.40
2022-12-08T20:58:45.547Z,80.50
2022-12-08T21:01:14.952Z,80.60
2022-12-08T21:03:42.805Z,80.80
2022-12-08T21:06:09.948Z,80.90
2022-12-08T21:08:37.684Z,81.00
2022-12-08T21:11:06.000Z,81.00
2022-12-08T21:13:32.988Z,81.00
2022-12-08T21:16:00.238Z,80.90
2022-12-08T21:18:27.677Z,80.90
2022-12-08T21:21:06.196Z,80.80
2022-12-08T21:23:34.519Z,80.80
2022-12-08T21:26:01.657Z,80.90
2022-12-08T21:28:28.885Z,80.90
2022-12-08T21:30:56.008Z,80.90
2022-12-08T21:33:23.249Z,80.90
2022-12-08T21:35:50.812Z,81.00
2022-12-08T21:38:17.811Z,80.80
2022-12-08T21:40:44.879Z,80.80
2022-12-08T21:43:13.709Z,80.90
2022-12-08T21:45:41.476Z,80.70
2022-12-08T21:48:11.710Z,80.80
2022-12-08T21:50:39.377Z,80.80
2022-12-08T21:53:06.463Z,80.70
2022-12-08T21:55:33.477Z,80.70
2022-12-08T21:58:02.157Z,80.60
2022-12-08T22:00:29.221Z,80.70
2022-12-08T22:02:56.428Z,80.70
2022-12-08T22:05:24.144Z,80.80
2022-12-08T22:07:51.412Z,80.70
2022-12-08T22:10:18.777Z,80.80
2022-12-08T22:12:45.683Z,80.90
2022-12-08T22:15:13.064Z,80.80
2022-12-08T22:17:42.281Z,80.90
2022-12-08T22:20:14.592Z,80.90
2022-12-08T22:22:42.240Z,80.80
2022-12-08T22:25:13.147Z,80.80
2022-12-08T22:27:40.715Z,80.80
2022-12-08T22:30:09.223Z,81.00
2022-12-08T22:32:37.072Z,80.90
2022-12-08T22:35:04.155Z,81.10
2022-12-08T22:37:31.097Z,81.10
2022-12-08T22:39:58.111Z,81.10
2022-12-08T22:42:25.023Z,81.00
2022-12-08T22:44:51.789Z,81.10
2022-12-08T22:47:18.600Z,81.10
2022-12-08T22:49:45.339Z,81.20
2022-12-08T22:52:12.145Z,81.20
2022-12-08T22:54:39.093Z,81.20
2022-12-08T22:57:06.135Z,81.20
2022-12-08T22:59:33.764Z,81.20
2022-12-08T23:02:00.723Z,81.10
2022-12-08T23:04:27.637Z,81.20
2022-12-08T23:06:54.570Z,81.10
2022-12-08T23:09:21.548Z,81.10
2022-12-08T23:11:48.462Z,81.10
2022-12-08T23:14:16.041Z,81.10
2022-12-08T23:16:43.280Z,81.20
2022-12-08T23:19:10.331Z,81.00
2022-12-08T23:21:37.326Z,81.00
2022-12-08T23:24:04.376Z,81.10
2022-12-08T23:26:33.432Z,81.20
2022-12-08T23:29:00.788Z,81.00
2022-12-08T23:31:27.713Z,81.00
2022-12-08T23:33:55.175Z,81.10
2022-12-08T23:36:25.925Z,80.90
2022-12-08T23:38:53.875Z,80.70
2022-12-08T23:41:21.198Z,80.90
2022-12-08T23:43:50.723Z,80.90
2022-12-08T23:46:20.396Z,80.80
2022-12-08T23:48:48.032Z,80.80
2022-12-08T23:51:15.097Z,80.60
2022-12-08T23:53:42.726Z,80.70
2022-12-08T23:56:12.963Z,80.90
2022-12-08T23:58:40.625Z,81.00
